Time;durP1;ratioP1;P1;durP2;ratioP2;P2;SDS_P1;SDS_P2;PMS_P1;PMS_P2;Temp;Humidity;BMP_temperature;BMP_pressure;BME280_temperature;BME280_humidity;BME280_pressure;Samples;Min_cycle;Max_cycle;Signal;HPM_P1;HPM_P2
2022/09/20 00:01:54;;;;;;;5.63;2.03;;;14.50;99.90;;;;;;5057261;28;20510;-80
2022/09/20 00:04:21;;;;;;;5.80;2.00;;;14.40;99.90;;;;;;5056241;28;20482;-81
2022/09/20 00:06:50;;;;;;;4.97;1.87;;;14.40;99.90;;;;;;5054346;28;20452;-82
2022/09/20 00:09:17;;;;;;;3.97;1.83;;;14.40;99.90;;;;;;5057875;28;20452;-81
2022/09/20 00:11:46;;;;;;;3.47;1.93;;;14.40;99.90;;;;;;5058759;28;21008;-84
2022/09/20 00:14:12;;;;;;;3.70;1.30;;;14.40;99.90;;;;;;5055688;28;20456;-82
2022/09/20 00:16:41;;;;;;;3.73;1.40;;;14.40;99.90;;;;;;5053114;28;21012;-82
2022/09/20 00:19:18;;;;;;;8.47;1.73;;;14.40;99.90;;;;;;5059656;28;20517;-82
2022/09/20 00:21:46;;;;;;;5.40;1.83;;;14.40;99.90;;;;;;5059559;28;20513;-82
2022/09/20 00:24:13;;;;;;;3.67;1.77;;;14.40;99.90;;;;;;5062112;28;20469;-83
2022/09/20 00:26:50;;;;;;;2.83;1.70;;;14.30;99.90;;;;;;5057937;28;20524;-83
2022/09/20 00:29:20;;;;;;;2.93;2.03;;;14.30;99.90;;;;;;5059642;28;20452;-83
2022/09/20 00:31:46;;;;;;;3.70;2.17;;;14.20;99.90;;;;;;5055643;28;20475;-84
2022/09/20 00:36:58;;;;;;;4.47;1.90;;;14.20;99.90;;;;;;5059035;28;20448;-83
2022/09/20 00:39:25;;;;;;;4.47;2.20;;;14.20;99.90;;;;;;5056955;28;21266;-82
2022/09/20 00:41:52;;;;;;;4.77;1.80;;;14.20;99.90;;;;;;5049415;28;20850;-82
2022/09/20 00:44:42;;;;;;;3.40;1.67;;;14.20;99.90;;;;;;5074903;28;20460;-83
2022/09/20 00:47:41;;;;;;;7.43;3.27;;;14.20;99.90;;;;;;5070058;28;20479;-82
2022/09/20 00:50:26;;;;;;;3.10;1.77;;;14.20;99.90;;;;;;5042925;28;20444;-82
2022/09/20 00:53:13;;;;;;;5.07;2.00;;;14.30;99.90;;;;;;5049932;28;20976;-83
2022/09/20 00:56:00;;;;;;;5.27;2.20;;;14.30;99.90;;;;;;5058368;28;20495;-83
2022/09/20 00:58:29;;;;;;;1.73;1.63;;;14.30;99.90;;;;;;5056013;28;20954;-82
2022/09/20 01:00:57;;;;;;;5.33;2.20;;;14.30;99.90;;;;;;5054296;28;20476;-85
2022/09/20 01:03:28;;;;;;;3.40;1.70;;;14.30;99.90;;;;;;5061738;28;20478;-83
2022/09/20 01:05:57;;;;;;;4.87;2.40;;;14.30;99.90;;;;;;5066199;28;20487;-82
2022/09/20 01:08:24;;;;;;;3.17;1.47;;;14.30;99.90;;;;;;5060172;28;20449;-83
2022/09/20 01:10:51;;;;;;;3.33;2.20;;;14.20;99.90;;;;;;5056385;28;20484;-82
2022/09/20 01:13:18;;;;;;;4.50;2.30;;;14.20;99.90;;;;;;5063306;28;20506;-82
2022/09/20 01:15:46;;;;;;;3.20;1.80;;;14.20;99.90;;;;;;5062694;28;21177;-81
2022/09/20 01:18:15;;;;;;;5.00;1.97;;;14.20;99.90;;;;;;5060738;28;20456;-82
2022/09/20 01:20:43;;;;;;;5.00;2.30;;;14.20;99.90;;;;;;5065246;28;21043;-82
2022/09/20 01:23:13;;;;;;;3.20;2.13;;;14.20;99.90;;;;;;5063551;28;20429;-83
2022/09/20 01:25:42;;;;;;;5.73;2.50;;;14.20;99.90;;;;;;5057163;28;20480;-83
2022/09/20 01:28:09;;;;;;;1.93;1.57;;;14.20;99.90;;;;;;5057113;28;20816;-82
2022/09/20 01:30:46;;;;;;;4.90;2.60;;;14.30;99.90;;;;;;5059520;28;20465;-83
2022/09/20 01:33:27;;;;;;;4.90;3.57;;;14.20;99.90;;;;;;5064303;28;20456;-82
2022/09/20 01:35:59;;;;;;;3.73;2.27;;;14.10;99.90;;;;;;5077310;28;20492;-82
2022/09/20 01:38:47;;;;;;;5.57;3.00;;;14.20;99.90;;;;;;5053768;28;20479;-83
2022/09/20 01:41:22;;;;;;;2.07;1.80;;;14.10;99.90;;;;;;5056289;28;20541;-82
2022/09/20 01:44:08;;;;;;;4.50;2.37;;;14.20;99.90;;;;;;5056147;28;20817;-82
2022/09/20 01:46:36;;;;;;;4.20;3.00;;;14.20;99.90;;;;;;5052891;28;20487;-82
2022/09/20 01:49:15;;;;;;;5.13;2.30;;;14.20;99.90;;;;;;5071811;28;20441;-82
2022/09/20 01:52:08;;;;;;;3.30;2.30;;;14.20;99.90;;;;;;5050770;28;20483;-82
2022/09/20 01:54:58;;;;;;;4.23;2.60;;;14.20;99.90;;;;;;5054908;28;20834;-82
2022/09/20 01:57:41;;;;;;;4.33;2.30;;;14.10;99.90;;;;;;5050739;28;20460;-83
2022/09/20 02:00:22;;;;;;;2.83;2.10;;;14.10;99.90;;;;;;5063441;28;20433;-82
2022/09/20 02:03:30;;;;;;;5.53;2.47;;;14.20;99.90;;;;;;5050063;28;20523;-82
2022/09/20 02:06:22;;;;;;;4.37;3.67;;;14.20;99.90;;;;;;5058853;28;20878;-83
2022/09/20 02:09:10;;;;;;;7.33;2.60;;;14.20;99.90;;;;;;5056885;28;20520;-83
2022/09/20 02:11:51;;;;;;;10.30;3.27;;;14.20;99.90;;;;;;5050311;28;20538;-82
2022/09/20 02:14:40;;;;;;;5.83;3.03;;;14.20;99.90;;;;;;5050068;28;20492;-81
2022/09/20 02:17:13;;;;;;;3.33;2.20;;;14.20;99.90;;;;;;5052347;28;20584;-82
2022/09/20 02:20:08;;;;;;;9.43;2.93;;;14.10;99.90;;;;;;5052505;28;20484;-82
2022/09/20 02:22:35;;;;;;;2.83;2.57;;;14.10;99.90;;;;;;5052608;28;20973;-81
2022/09/20 02:25:28;;;;;;;5.13;2.57;;;14.10;99.90;;;;;;5056154;28;20475;-81
2022/09/20 02:28:29;;;;;;;2.90;2.10;;;14.10;99.90;;;;;;5047162;28;20444;-82
2022/09/20 02:30:59;;;;;;;3.83;3.10;;;14.10;99.90;;;;;;5053831;28;20472;-82
2022/09/20 02:33:35;;;;;;;2.70;2.50;;;14.10;99.90;;;;;;5071293;28;20452;-82
2022/09/20 02:36:20;;;;;;;7.10;2.73;;;14.10;99.90;;;;;;5049540;28;20902;-83
2022/09/20 02:39:06;;;;;;;3.27;2.40;;;14.10;99.90;;;;;;5055234;28;20447;-82
2022/09/20 02:42:00;;;;;;;6.13;3.13;;;14.00;99.90;;;;;;5070382;28;20484;-82
2022/09/20 02:44:39;;;;;;;7.17;2.90;;;14.00;99.90;;;;;;5071151;28;20444;-80
2022/09/20 02:47:09;;;;;;;4.47;3.33;;;14.10;99.90;;;;;;5070590;28;20444;-80
2022/09/20 02:50:12;;;;;;;5.20;2.03;;;14.00;99.90;;;;;;5061605;28;20445;-82
2022/09/20 02:52:57;;;;;;;5.37;2.60;;;14.10;99.90;;;;;;5056857;28;20502;-82
2022/09/20 02:55:45;;;;;;;4.93;2.77;;;14.10;99.90;;;;;;5055150;28;20472;-83
2022/09/20 02:58:45;;;;;;;5.60;3.00;;;14.10;99.90;;;;;;5052399;28;20440;-82
2022/09/20 03:01:23;;;;;;;6.87;3.57;;;14.10;99.90;;;;;;5047298;28;20522;-83
2022/09/20 03:04:13;;;;;;;4.90;2.50;;;14.10;99.90;;;;;;5053902;28;20502;-83
2022/09/20 03:07:02;;;;;;;4.63;2.67;;;14.20;99.90;;;;;;5049264;28;20508;-81
2022/09/20 03:09:57;;;;;;;4.40;2.87;;;14.20;99.90;;;;;;5050928;28;20479;-81
2022/09/20 03:12:23;;;;;;;4.07;2.57;;;14.20;99.90;;;;;;5053694;28;20496;-83
2022/09/20 03:15:09;;;;;;;4.10;2.80;;;14.10;99.90;;;;;;5053630;28;20452;-83
2022/09/20 03:18:01;;;;;;;6.97;2.50;;;14.10;99.90;;;;;;5056252;28;20480;-83
2022/09/20 03:20:42;;;;;;;4.70;2.47;;;14.10;99.90;;;;;;5056144;28;20472;-83
2022/09/20 03:23:33;;;;;;;7.97;2.50;;;14.10;99.90;;;;;;5057168;28;20487;-82
2022/09/20 03:26:43;;;;;;;6.57;2.40;;;14.00;99.90;;;;;;5052279;28;20459;-80
2022/09/20 03:29:34;;;;;;;7.57;2.70;;;14.00;99.90;;;;;;5058689;28;20507;-81
2022/09/20 03:32:18;;;;;;;4.60;3.13;;;14.00;99.90;;;;;;5054630;28;20470;-82
2022/09/20 03:35:01;;;;;;;6.03;2.40;;;14.00;99.90;;;;;;5052622;28;20472;-82
2022/09/20 03:37:46;;;;;;;3.70;2.63;;;14.10;99.90;;;;;;5044058;28;20468;-83
2022/09/20 03:40:51;;;;;;;6.10;2.50;;;14.10;99.90;;;;;;5052714;28;20487;-83
2022/09/20 03:43:50;;;;;;;3.63;2.40;;;14.10;99.90;;;;;;5048164;28;20461;-82
2022/09/20 03:46:26;;;;;;;7.50;3.10;;;14.10;99.90;;;;;;5052983;28;20534;-82
2022/09/20 03:49:11;;;;;;;5.47;2.50;;;14.10;99.90;;;;;;5069339;28;20456;-83
2022/09/20 03:51:44;;;;;;;8.30;2.93;;;14.10;99.90;;;;;;5050930;28;20498;-84
2022/09/20 03:54:25;;;;;;;3.73;2.23;;;14.30;99.90;;;;;;5054460;28;20904;-84
2022/09/20 03:56:54;;;;;;;5.20;2.70;;;14.30;99.90;;;;;;5048535;28;20530;-82
2022/09/20 03:59:37;;;;;;;8.37;2.60;;;14.20;99.90;;;;;;5065797;28;20444;-82
2022/09/20 04:02:39;;;;;;;6.13;1.80;;;14.30;99.90;;;;;;5047134;28;20529;-82
2022/09/20 04:05:15;;;;;;;4.07;2.10;;;14.30;99.90;;;;;;5047113;28;20447;-83
2022/09/20 04:08:00;;;;;;;5.87;2.17;;;14.20;99.90;;;;;;5054271;28;20490;-81
2022/09/20 04:10:43;;;;;;;9.03;2.77;;;14.10;99.90;;;;;;5063841;28;20459;-82
2022/09/20 04:13:28;;;;;;;4.17;1.77;;;14.10;99.90;;;;;;5054562;28;20510;-80
2022/09/20 04:16:08;;;;;;;3.70;1.83;;;14.10;99.90;;;;;;5051197;28;20519;-82
2022/09/20 04:18:49;;;;;;;4.70;2.23;;;14.10;99.90;;;;;;5051916;28;20456;-82
2022/09/20 04:21:23;;;;;;;4.03;1.97;;;14.10;99.90;;;;;;5054195;28;21174;-83
2022/09/20 04:24:07;;;;;;;4.00;1.80;;;14.20;99.90;;;;;;5050773;28;20457;-82
2022/09/20 04:26:44;;;;;;;7.10;1.90;;;14.20;99.90;;;;;;5056917;28;20456;-82
2022/09/20 04:29:33;;;;;;;4.70;1.97;;;14.20;99.90;;;;;;5057219;28;20480;-83
2022/09/20 04:32:22;;;;;;;3.17;1.87;;;14.10;99.90;;;;;;5063200;28;20460;-83
2022/09/20 04:38:04;;;;;;;6.27;1.70;;;14.10;99.90;;;;;;5049326;28;20468;-83
2022/09/20 04:41:08;;;;;;;5.57;1.90;;;14.10;99.90;;;;;;5063887;28;20440;-83
2022/09/20 04:43:56;;;;;;;3.13;1.50;;;14.00;99.90;;;;;;5061723;28;20478;-83
2022/09/20 04:46:40;;;;;;;4.50;1.67;;;14.00;99.90;;;;;;5062011;28;20447;-82
2022/09/20 04:49:22;;;;;;;2.80;1.70;;;14.00;99.90;;;;;;5057931;28;20451;-84
2022/09/20 04:52:18;;;;;;;7.83;2.20;;;14.00;99.90;;;;;;5063169;28;20534;-83
2022/09/20 04:55:16;;;;;;;3.83;1.60;;;14.00;99.90;;;;;;5069845;28;20449;-81
2022/09/20 04:58:15;;;;;;;2.40;1.70;;;14.00;99.90;;;;;;5060446;28;20468;-82
2022/09/20 05:01:09;;;;;;;4.37;1.90;;;13.90;99.90;;;;;;5065133;28;20456;-81
2022/09/20 05:04:07;;;;;;;9.50;3.30;;;13.90;99.90;;;;;;5066994;28;20440;-79
2022/09/20 05:07:03;;;;;;;4.53;1.60;;;13.90;99.90;;;;;;5053874;28;20460;-82
2022/09/20 05:09:47;;;;;;;3.00;2.03;;;13.90;99.90;;;;;;5053762;28;20504;-81
2022/09/20 05:12:36;;;;;;;3.10;1.80;;;13.90;99.90;;;;;;5055838;28;20899;-82
2022/09/20 05:15:08;;;;;;;6.83;2.33;;;13.90;99.90;;;;;;5052086;28;21002;-82
2022/09/20 05:17:38;;;;;;;3.87;1.80;;;14.00;99.90;;;;;;5055819;28;20515;-82
2022/09/20 05:20:11;;;;;;;4.70;2.50;;;13.90;99.90;;;;;;5057960;28;20480;-82
2022/09/20 05:22:48;;;;;;;6.70;2.20;;;13.90;99.90;;;;;;5056661;28;20473;-83
2022/09/20 05:25:45;;;;;;;9.07;2.90;;;13.80;99.90;;;;;;5042272;28;20457;-82
2022/09/20 05:28:32;;;;;;;3.23;2.50;;;13.80;99.90;;;;;;5051798;28;20939;-83
2022/09/20 05:31:20;;;;;;;7.07;2.80;;;13.80;99.90;;;;;;5054642;28;20476;-82
2022/09/20 05:34:00;;;;;;;10.07;3.03;;;13.80;99.90;;;;;;5065517;28;20471;-82
2022/09/20 05:36:38;;;;;;;5.90;2.73;;;13.90;99.90;;;;;;5070591;28;20852;-81
2022/09/20 05:39:45;;;;;;;10.00;3.63;;;13.90;99.90;;;;;;5048433;28;20871;-81
2022/09/20 05:42:18;;;;;;;5.13;3.50;;;14.00;99.90;;;;;;5047712;28;20527;-82
2022/09/20 05:44:56;;;;;;;6.40;3.00;;;13.90;99.90;;;;;;5055893;28;20530;-80
2022/09/20 05:47:31;;;;;;;4.43;3.30;;;14.00;99.90;;;;;;5070929;28;20586;-82
2022/09/20 05:50:11;;;;;;;4.50;3.37;;;14.00;99.90;;;;;;5050248;28;20481;-81
2022/09/20 05:53:05;;;;;;;6.20;3.40;;;14.00;99.90;;;;;;5053775;28;20468;-81
2022/09/20 05:55:35;;;;;;;5.10;3.27;;;14.00;99.90;;;;;;5050130;28;20524;-81
2022/09/20 05:58:26;;;;;;;7.10;3.63;;;14.00;99.90;;;;;;5057315;28;20533;-82
2022/09/20 06:00:58;;;;;;;5.83;3.83;;;14.00;99.90;;;;;;5056760;28;20957;-82
2022/09/20 06:03:38;;;;;;;7.80;3.83;;;14.00;99.90;;;;;;5056949;28;20458;-84
2022/09/20 06:06:41;;;;;;;7.73;4.13;;;14.00;99.90;;;;;;5055597;28;20906;-83
2022/09/20 06:09:45;;;;;;;6.53;3.90;;;13.90;99.90;;;;;;5055490;28;20519;-83
2022/09/20 06:12:40;;;;;;;4.43;3.40;;;13.90;99.90;;;;;;5029907;28;20478;-83
2022/09/20 06:15:13;;;;;;;9.13;4.30;;;14.00;99.90;;;;;;5021478;28;20450;-81
2022/09/20 06:18:03;;;;;;;7.53;3.97;;;14.00;99.90;;;;;;5044318;28;20481;-81
2022/09/20 06:20:41;;;;;;;7.80;4.40;;;14.00;99.90;;;;;;5066336;28;20456;-80
2022/09/20 06:23:09;;;;;;;8.17;4.37;;;14.10;99.90;;;;;;5067238;28;20452;-80
2022/09/20 06:25:57;;;;;;;8.03;3.73;;;14.10;99.90;;;;;;5081652;28;20449;-81
2022/09/20 06:28:38;;;;;;;5.80;4.00;;;14.10;99.90;;;;;;5062306;28;20453;-81
2022/09/20 06:31:07;;;;;;;7.93;4.03;;;14.10;99.90;;;;;;5063464;28;20518;-81
2022/09/20 06:33:43;;;;;;;8.13;4.63;;;14.10;99.90;;;;;;5061625;28;20455;-81
2022/09/20 06:42:09;;;;;;;5.50;4.03;;;14.20;99.90;;;;;;5048199;28;20793;-82
2022/09/20 06:44:40;;;;;;;5.90;4.30;;;14.30;99.90;;;;;;5070545;28;20463;-80
2022/09/20 06:47:09;;;;;;;6.97;4.10;;;14.40;99.90;;;;;;5070603;28;20449;-81
2022/09/20 06:49:36;;;;;;;6.73;3.70;;;14.40;99.90;;;;;;5060086;28;20425;-81
2022/09/20 06:52:05;;;;;;;5.23;4.13;;;14.40;99.90;;;;;;5068859;28;20476;-82
2022/09/20 06:54:32;;;;;;;7.40;4.27;;;14.40;99.90;;;;;;5059244;28;20650;-81
2022/09/20 06:57:04;;;;;;;17.80;4.80;;;14.40;99.90;;;;;;5055756;28;20480;-81
2022/09/20 06:59:34;;;;;;;6.07;4.00;;;14.40;99.90;;;;;;5073838;28;20475;-83
2022/09/20 07:02:02;;;;;;;5.97;4.03;;;14.70;99.90;;;;;;5050143;28;20479;-84
2022/09/20 07:04:35;;;;;;;6.00;4.20;;;15.00;99.90;;;;;;5058230;28;20463;-83
2022/09/20 07:07:04;;;;;;;8.23;3.63;;;15.30;99.90;;;;;;5063740;28;20448;-83
2022/09/20 07:09:37;;;;;;;5.23;3.80;;;15.30;99.90;;;;;;5052033;28;20488;-83
2022/09/20 07:12:10;;;;;;;6.77;3.83;;;15.60;99.90;;;;;;5046539;28;20472;-83
2022/09/20 07:14:43;;;;;;;5.43;3.63;;;16.40;99.90;;;;;;5056913;28;20470;-83
2022/09/20 07:17:09;;;;;;;6.53;3.40;;;17.00;98.70;;;;;;5056955;28;20480;-82
2022/09/20 07:19:36;;;;;;;5.60;3.57;;;17.00;97.90;;;;;;5055332;28;20455;-83
2022/09/20 07:22:03;;;;;;;7.57;3.40;;;17.00;97.80;;;;;;5055689;28;20993;-82
2022/09/20 07:24:31;;;;;;;7.47;4.47;;;17.40;97.30;;;;;;5055321;28;20440;-82
2022/09/20 07:27:03;;;;;;;5.83;3.10;;;17.80;96.80;;;;;;5052922;28;20452;-82
2022/09/20 07:29:30;;;;;;;5.43;3.53;;;18.70;95.40;;;;;;5055318;28;20456;-81
2022/09/20 07:31:57;;;;;;;6.17;3.63;;;19.10;94.40;;;;;;5057278;28;20472;-81
2022/09/20 07:34:24;;;;;;;7.90;3.40;;;19.90;93.50;;;;;;5055400;28;20440;-83
2022/09/20 07:36:51;;;;;;;4.37;2.80;;;21.60;90.70;;;;;;5057521;28;20977;-82
2022/09/20 07:39:18;;;;;;;7.20;3.13;;;22.60;83.00;;;;;;5060940;28;20444;-82
2022/09/20 07:41:47;;;;;;;4.70;2.80;;;23.20;80.40;;;;;;5056666;28;20475;-83
2022/09/20 07:44:20;;;;;;;3.63;2.43;;;24.60;75.90;;;;;;5054933;28;20526;-83
2022/09/20 07:46:52;;;;;;;4.80;2.60;;;25.70;66.60;;;;;;5057906;28;20468;-84
2022/09/20 07:49:20;;;;;;;4.47;2.67;;;25.50;65.90;;;;;;5065918;28;20436;-83
2022/09/20 07:51:48;;;;;;;2.97;2.67;;;25.60;64.40;;;;;;5072445;28;20551;-84
2022/09/20 07:54:15;;;;;;;3.80;1.77;;;25.20;63.00;;;;;;5068071;28;20440;-84
2022/09/20 07:56:43;;;;;;;4.13;2.60;;;24.50;65.00;;;;;;5051697;28;20582;-83
2022/09/20 07:59:10;;;;;;;4.87;2.47;;;23.60;66.40;;;;;;5052350;28;20455;-83
2022/09/20 08:01:37;;;;;;;6.30;3.03;;;22.10;70.40;;;;;;5047219;28;20494;-83
2022/09/20 08:04:06;;;;;;;5.03;2.40;;;20.90;76.70;;;;;;5051524;28;20445;-82
2022/09/20 08:06:36;;;;;;;3.83;2.40;;;20.20;81.10;;;;;;5044483;28;20527;-82
2022/09/20 08:09:04;;;;;;;2.93;1.90;;;19.70;84.00;;;;;;5055084;28;20457;-83
2022/09/20 08:11:37;;;;;;;3.93;2.03;;;19.50;85.00;;;;;;5072233;28;20472;-82
2022/09/20 08:14:04;;;;;;;5.07;2.43;;;20.00;84.50;;;;;;5056330;28;20531;-83
2022/09/20 08:16:41;;;;;;;2.90;2.17;;;19.70;83.60;;;;;;5052818;28;20479;-80
2022/09/20 08:19:12;;;;;;;4.90;2.07;;;19.40;85.90;;;;;;5055561;28;20444;-80
2022/09/20 08:21:39;;;;;;;4.30;1.73;;;18.90;87.20;;;;;;5056875;28;20528;-82
2022/09/20 08:24:06;;;;;;;3.67;1.97;;;18.80;89.20;;;;;;5056408;28;20494;-81
2022/09/20 08:26:34;;;;;;;4.47;1.87;;;18.50;90.00;;;;;;5051321;28;20478;-82
2022/09/20 08:29:02;;;;;;;7.60;1.90;;;18.40;90.20;;;;;;5057399;28;20442;-81
2022/09/20 08:31:33;;;;;;;5.27;3.30;;;17.90;90.60;;;;;;5056112;28;20519;-83
2022/09/20 08:34:03;;;;;;;5.10;1.80;;;17.70;91.30;;;;;;5055314;28;20476;-82
2022/09/20 08:36:31;;;;;;;3.60;1.83;;;17.90;91.80;;;;;;5045812;28;20444;-83
2022/09/20 08:39:02;;;;;;;3.63;1.80;;;17.90;91.30;;;;;;5051163;28;20507;-83
2022/09/20 08:42:13;;;;;;;3.27;1.80;;;17.50;91.80;;;;;;5048689;28;20475;-82
2022/09/20 08:44:51;;;;;;;6.83;1.90;;;17.40;92.10;;;;;;5050930;28;20535;-82
2022/09/20 08:47:31;;;;;;;4.63;2.97;;;17.40;91.90;;;;;;5054617;28;20886;-81
2022/09/20 08:50:01;;;;;;;2.77;1.50;;;17.40;92.00;;;;;;5057152;28;20527;-82
2022/09/20 08:52:37;;;;;;;3.10;1.30;;;17.60;92.00;;;;;;5052082;28;20467;-82
2022/09/20 08:55:12;;;;;;;9.23;1.80;;;17.70;91.90;;;;;;5057324;28;20444;-81
2022/09/20 08:57:39;;;;;;;3.70;1.67;;;17.70;91.40;;;;;;5050458;28;20835;-82
2022/09/20 09:00:06;;;;;;;2.00;1.10;;;17.70;90.50;;;;;;5054218;28;20456;-84
2022/09/20 09:02:34;;;;;;;4.63;1.90;;;17.70;90.50;;;;;;5063274;28;20452;-82
2022/09/20 09:05:05;;;;;;;5.80;1.73;;;17.80;90.00;;;;;;5058774;28;20951;-83
2022/09/20 09:07:32;;;;;;;1.80;1.20;;;17.60;90.30;;;;;;5055804;28;20480;-83
2022/09/20 09:09:59;;;;;;;2.63;1.17;;;17.60;90.20;;;;;;5055900;28;20483;-84
2022/09/20 09:12:34;;;;;;;2.37;1.30;;;17.50;90.80;;;;;;5056643;28;20479;-83
2022/09/20 09:15:20;;;;;;;1.80;1.23;;;17.70;90.60;;;;;;5053519;28;20468;-82
2022/09/20 09:17:50;;;;;;;3.07;1.30;;;17.80;90.00;;;;;;5049883;28;20554;-82
2022/09/20 09:20:21;;;;;;;3.10;1.67;;;17.70;90.30;;;;;;5055437;28;20453;-83
2022/09/20 09:23:02;;;;;;;4.27;1.30;;;17.40;90.60;;;;;;5055578;28;20502;-82
2022/09/20 09:25:36;;;;;;;4.57;1.70;;;17.40;91.10;;;;;;5055301;28;20444;-81
2022/09/20 09:28:06;;;;;;;5.23;2.00;;;17.60;90.70;;;;;;5054485;28;20440;-83
2022/09/20 09:30:37;;;;;;;4.80;1.83;;;17.60;90.70;;;;;;5056929;28;20969;-83
2022/09/20 09:33:13;;;;;;;3.50;1.70;;;17.40;90.90;;;;;;5071818;28;20464;-83
2022/09/20 09:35:40;;;;;;;9.27;4.93;;;17.40;91.00;;;;;;5059282;28;20476;-82
2022/09/20 09:38:20;;;;;;;5.63;2.90;;;17.50;90.70;;;;;;5065640;28;20538;-80
2022/09/20 09:40:56;;;;;;;6.07;2.07;;;17.50;90.40;;;;;;5063046;28;20491;-84
2022/09/20 09:43:31;;;;;;;6.83;1.43;;;17.40;89.70;;;;;;5069255;28;20436;-82
2022/09/20 09:46:22;;;;;;;6.63;1.40;;;17.30;88.40;;;;;;5066476;28;20440;-82
2022/09/20 09:49:18;;;;;;;4.53;2.43;;;17.50;86.70;;;;;;5055711;28;20456;-83
2022/09/20 09:51:59;;;;;;;3.20;1.47;;;17.20;87.20;;;;;;5053581;28;20484;-83
2022/09/20 09:54:28;;;;;;;3.43;1.93;;;17.30;88.00;;;;;;5055973;28;20486;-84
2022/09/20 09:57:19;;;;;;;3.67;1.93;;;17.20;89.30;;;;;;5051590;28;20452;-84
2022/09/20 10:00:11;;;;;;;3.23;1.87;;;17.20;88.90;;;;;;5053758;28;20452;-83
2022/09/20 10:03:11;;;;;;;4.27;1.60;;;17.00;88.40;;;;;;5056528;28;20448;-84
2022/09/20 10:05:38;;;;;;;8.37;2.17;;;16.80;90.00;;;;;;5057431;28;20453;-83
2022/09/20 10:08:23;;;;;;;4.33;3.23;;;17.10;90.40;;;;;;5072201;28;20793;-82
2022/09/20 10:11:11;;;;;;;2.27;1.70;;;16.90;89.10;;;;;;5072529;28;20500;-83
2022/09/20 10:14:02;;;;;;;4.87;1.07;;;16.80;90.10;;;;;;5071139;28;20448;-83
2022/09/20 10:16:57;;;;;;;2.57;0.93;;;16.90;90.30;;;;;;5050009;28;20518;-84
2022/09/20 10:19:39;;;;;;;3.47;2.03;;;16.80;87.70;;;;;;5051735;28;20940;-83
2022/09/20 10:22:34;;;;;;;3.07;1.47;;;16.70;87.80;;;;;;5063569;28;20472;-83
2022/09/20 10:25:25;;;;;;;3.53;1.70;;;17.20;85.80;;;;;;5071826;28;20478;-83
2022/09/20 10:28:10;;;;;;;3.67;1.40;;;16.90;86.40;;;;;;5056413;28;20940;-82
2022/09/20 10:31:11;;;;;;;5.63;1.63;;;16.80;87.50;;;;;;5057348;28;20472;-83
2022/09/20 10:34:05;;;;;;;4.87;1.30;;;16.60;88.70;;;;;;5057419;28;20965;-82
2022/09/20 10:36:54;;;;;;;3.77;1.40;;;16.60;89.70;;;;;;5059362;28;20861;-81
2022/09/20 10:39:37;;;;;;;4.13;2.03;;;16.60;90.20;;;;;;5058309;28;20495;-83
2022/09/20 10:45:55;;;;;;;3.30;1.70;;;16.80;89.30;;;;;;5059747;28;20444;-83
2022/09/20 10:48:51;;;;;;;3.40;1.03;;;16.80;89.30;;;;;;5053936;28;20473;-83
2022/09/20 10:51:23;;;;;;;1.77;1.07;;;17.00;88.10;;;;;;5046586;28;20844;-83
2022/09/20 10:54:23;;;;;;;3.97;0.83;;;17.10;86.10;;;;;;5055506;28;20510;-83
2022/09/20 10:56:57;;;;;;;5.10;1.60;;;17.10;83.70;;;;;;5057805;28;20501;-83
2022/09/20 10:59:36;;;;;;;2.63;1.50;;;17.20;82.80;;;;;;5052365;28;20454;-82
2022/09/20 11:02:41;;;;;;;2.70;2.03;;;17.30;80.80;;;;;;5064085;28;20707;-84
2022/09/20 11:05:18;;;;;;;3.10;0.80;;;17.50;79.50;;;;;;5063043;28;20486;-81
2022/09/20 11:08:07;;;;;;;5.83;1.30;;;17.60;78.70;;;;;;5063434;28;20493;-83
2022/09/20 11:10:43;;;;;;;2.23;1.13;;;17.70;78.40;;;;;;5053675;28;20500;-83
2022/09/20 11:13:36;;;;;;;2.93;1.47;;;18.10;78.30;;;;;;5070824;28;20452;-83
2022/09/20 11:16:08;;;;;;;3.57;1.10;;;18.20;76.50;;;;;;5051133;28;20958;-82
2022/09/20 11:18:42;;;;;;;2.03;1.10;;;18.00;76.20;;;;;;5039797;28;20978;-81
2022/09/20 11:21:26;;;;;;;4.13;1.33;;;17.50;76.90;;;;;;5052911;28;20540;-83
2022/09/20 11:24:01;;;;;;;1.57;0.80;;;17.10;79.40;;;;;;5052862;28;20499;-81
2022/09/20 11:26:38;;;;;;;5.60;1.40;;;16.90;81.60;;;;;;5048317;28;20502;-81
2022/09/20 11:29:34;;;;;;;3.10;1.40;;;16.80;84.00;;;;;;5054007;28;20456;-83
2022/09/20 11:32:16;;;;;;;1.83;1.47;;;16.80;85.20;;;;;;5082254;28;20477;-82
2022/09/20 11:35:02;;;;;;;3.70;1.23;;;16.80;85.80;;;;;;5044557;28;20448;-83
2022/09/20 11:37:34;;;;;;;2.53;1.27;;;16.70;85.60;;;;;;5067551;28;20502;-82
2022/09/20 11:40:27;;;;;;;3.57;1.80;;;16.80;85.90;;;;;;5069208;28;21234;-84
2022/09/20 11:42:57;;;;;;;1.83;1.13;;;16.70;88.40;;;;;;5047972;28;20531;-83
2022/09/20 11:45:27;;;;;;;2.67;1.37;;;16.60;90.10;;;;;;5054079;28;20949;-83
2022/09/20 11:48:02;;;;;;;1.73;1.00;;;16.60;90.80;;;;;;5055942;28;20866;-84
2022/09/20 11:50:59;;;;;;;3.37;1.10;;;16.60;91.70;;;;;;5052231;28;20922;-82
2022/09/20 11:53:32;;;;;;;5.00;1.47;;;16.50;92.40;;;;;;5051645;28;20494;-81
2022/09/20 11:56:24;;;;;;;3.67;1.50;;;16.50;93.00;;;;;;5054632;28;20440;-83
2022/09/20 11:58:58;;;;;;;3.03;1.50;;;16.40;92.90;;;;;;5042982;28;20477;-82
2022/09/20 12:01:30;;;;;;;4.50;1.60;;;16.30;92.30;;;;;;5046560;28;20476;-82
2022/09/20 12:04:02;;;;;;;1.63;1.10;;;16.30;92.50;;;;;;5053074;28;20880;-84
2022/09/20 12:07:20;;;;;;;2.07;0.93;;;16.20;93.10;;;;;;5047162;28;20868;-82
2022/09/20 12:10:01;;;;;;;2.03;1.20;;;16.20;92.70;;;;;;5043145;28;20452;-82
2022/09/20 12:12:35;;;;;;;5.20;3.10;;;16.20;93.20;;;;;;5051705;28;20475;-82
2022/09/20 12:15:22;;;;;;;4.67;1.90;;;16.20;92.90;;;;;;5051944;28;20484;-81
2022/09/20 12:17:48;;;;;;;4.17;1.50;;;16.20;92.60;;;;;;5054626;28;20477;-82
2022/09/20 12:20:41;;;;;;;3.67;1.60;;;16.20;92.60;;;;;;5057343;28;21265;-81
2022/09/20 12:23:36;;;;;;;3.50;1.60;;;16.30;92.30;;;;;;5076933;28;20451;-82
2022/09/20 12:26:03;;;;;;;1.37;1.20;;;16.40;91.90;;;;;;5052150;28;21004;-81
2022/09/20 12:28:48;;;;;;;2.00;1.30;;;16.50;91.90;;;;;;5053504;28;20448;-83
2022/09/20 12:31:18;;;;;;;0.83;0.77;;;16.60;91.90;;;;;;5055097;28;20493;-83
2022/09/20 12:34:03;;;;;;;1.13;0.70;;;16.60;91.90;;;;;;5051101;28;20462;-82
2022/09/20 12:36:34;;;;;;;2.07;1.00;;;16.80;91.50;;;;;;5052304;28;20456;-83
2022/09/20 12:39:10;;;;;;;1.70;1.20;;;16.90;90.80;;;;;;5049852;28;20529;-81
2022/09/20 12:41:54;;;;;;;6.30;1.23;;;17.10;90.70;;;;;;5054410;28;21019;-83
2022/09/20 12:44:26;;;;;;;2.50;1.47;;;17.40;90.20;;;;;;5068164;28;20445;-83
2022/09/20 12:47:19;;;;;;;4.43;1.23;;;17.90;89.10;;;;;;5067746;28;20448;-84
2022/09/20 12:52:49;;;;;;;0.97;0.80;;;19.30;83.30;;;;;;5044070;28;20475;-83
2022/09/20 12:55:30;;;;;;;1.90;1.00;;;20.00;76.70;;;;;;5071790;28;20435;-81
2022/09/20 12:58:00;;;;;;;2.00;0.90;;;19.90;71.70;;;;;;5047172;28;20547;-83
2022/09/20 13:00:36;;;;;;;1.70;1.20;;;19.70;71.20;;;;;;5055014;28;20498;-84
2022/09/20 13:03:12;;;;;;;1.90;0.93;;;19.70;72.30;;;;;;5079138;28;20496;-82
2022/09/20 13:05:41;;;;;;;2.00;0.70;;;19.50;71.20;;;;;;5065215;28;20470;-81
2022/09/20 13:08:16;;;;;;;2.13;0.83;;;19.40;72.70;;;;;;5050754;28;20465;-83
2022/09/20 13:11:06;;;;;;;3.20;0.57;;;19.70;73.80;;;;;;5069466;28;20560;-83
2022/09/20 13:13:43;;;;;;;0.97;0.70;;;20.40;72.30;;;;;;5066265;28;20440;-84
2022/09/20 13:16:36;;;;;;;2.53;1.27;;;20.90;69.00;;;;;;5073373;28;20457;-82
2022/09/20 13:19:11;;;;;;;1.30;0.70;;;20.40;69.00;;;;;;5068270;28;20475;-81
2022/09/20 13:21:39;;;;;;;2.50;0.90;;;19.80;71.50;;;;;;5072412;28;20456;-80
2022/09/20 13:24:13;;;;;;;7.57;2.63;;;19.50;72.70;;;;;;5066599;28;20443;-82
2022/09/20 13:26:44;;;;;;;2.10;1.20;;;19.10;74.20;;;;;;5061995;28;20435;-81
2022/09/20 13:29:39;;;;;;;1.33;0.90;;;18.80;75.80;;;;;;5056757;28;20472;-83
2022/09/20 13:32:33;;;;;;;1.70;1.27;;;18.80;78.50;;;;;;5052538;28;20545;-83
2022/09/20 13:35:07;;;;;;;3.13;1.20;;;18.70;79.80;;;;;;5055875;28;20467;-83
2022/09/20 13:37:35;;;;;;;2.40;1.23;;;18.80;79.60;;;;;;5055212;28;20448;-83
2022/09/20 13:40:04;;;;;;;1.60;1.30;;;18.70;80.50;;;;;;5055449;28;20942;-83
2022/09/20 13:42:34;;;;;;;3.83;1.63;;;18.60;80.40;;;;;;5045921;28;20484;-81
2022/09/20 13:45:03;;;;;;;6.63;1.97;;;18.60;79.90;;;;;;5054748;28;20449;-83
2022/09/20 13:47:31;;;;;;;1.53;1.17;;;18.70;78.60;;;;;;5053587;28;20437;-82
2022/09/20 13:50:06;;;;;;;5.27;1.27;;;18.80;78.50;;;;;;5067463;28;20463;-84
2022/09/20 13:52:42;;;;;;;2.33;1.10;;;18.70;78.70;;;;;;5055629;28;20996;-80
2022/09/20 13:55:27;;;;;;;1.97;1.00;;;18.60;79.00;;;;;;5056178;28;20456;-83
2022/09/20 13:57:58;;;;;;;3.33;0.90;;;18.50;80.10;;;;;;5047837;28;20464;-83
2022/09/20 14:00:24;;;;;;;3.43;1.13;;;18.50;81.20;;;;;;5056033;28;20503;-83
2022/09/20 14:02:55;;;;;;;1.97;1.00;;;18.20;81.30;;;;;;5055259;28;20938;-83
2022/09/20 14:05:28;;;;;;;3.30;1.17;;;18.20;82.50;;;;;;5071204;28;20447;-83